Aviation Digital Data Service (ADDS)

Output produced by METARs form (0354 UTC 01 September 2015)
found at http://www.aviationweather.gov/adds/metars/
 
KJFK 010234Z 0103/0206 24010KT P6SM SCT080 SCT250 
     FM010500 26008KT P6SM SCT250 
     FM011000 34005KT P6SM FEW050 
     FM011700 18009KT P6SM FEW050 
     FM020300 17005KT P6SM SKC